Arlington, Kansas
Current Conditions -  °F | °C
As of 6:52 AM on Saturday 20 Dec 2014 (Local Time) from KHUT Reporting Station
Haze Haze  
Wind Chill: 25°   Ceiling: Unl
Heat Index: 33°   Visibility: 5mi
Dew Point: 30°   Wind: 10mph
Humidity: 89%   Direction: 200°SSW
Pressure: 30.14"   Gusts: NA
Location:  37.9°N, 98.18°W
Report Text: KHUT 201252Z 20009KT 5SM BR CLR 01/M01 A3014 RMK AO2 SLP210 I1001 T00061011
Loading
Personal Weather Stations






























Interactive Weather Map New forecast layout! Learn more

10-Day Weather Forecast

Advertisements
Track Severe Weather on mobile